Sublime, Texas
Current Conditions -  °F | °C
As of 12:15 AM on Friday 19 Dec 2014 (Local Time) from K66R Reporting Station
Thunderstorm Thunderstorm  
Wind Chill: 59°   Ceiling: 1000
Heat Index: 59°   Visibility: 5mi
Dew Point: 58°   Wind: 6mph
Humidity: 97%   Direction: 10°N
Pressure: 30.03"   Gusts: NA
Location:  29.48°N, 96.8°W
Report Text: K66R 190615Z AUTO 01005KT 5SM -VCTSRA SCT004 BKN010 OVC021 15/15 A3003 RMK AO2 LTG DSNT ALQS P0005 T01500146
Loading
Personal Weather Stations






























Interactive Weather Map New forecast layout! Learn more

10-Day Weather Forecast

Advertisements
Track Severe Weather on mobile